createdAt,value
2023-05-20T00:00:11.497Z,99922.90
2023-05-20T00:05:34.775Z,99927.30
2023-05-20T00:10:47.855Z,99923.87
2023-05-20T00:15:53.322Z,99916.91
2023-05-20T00:20:56.478Z,99921.95
2023-05-20T00:26:00.870Z,99927.23
2023-05-20T00:31:04.994Z,99924.25
2023-05-20T00:36:08.972Z,99921.13
2023-05-20T00:41:12.462Z,99924.16
2023-05-20T00:46:15.711Z,99919.11
2023-05-20T00:51:19.429Z,99915.69
2023-05-20T00:56:23.102Z,99911.15
2023-05-20T01:01:26.738Z,99910.16
2023-05-20T01:06:30.098Z,99910.61
2023-05-20T01:11:39.038Z,99902.14
2023-05-20T01:16:44.229Z,99901.83
2023-05-20T01:21:48.378Z,99899.05
2023-05-20T01:26:52.985Z,99893.90
2023-05-20T01:31:59.065Z,99886.16
2023-05-20T01:37:04.881Z,99884.69
2023-05-20T01:42:10.562Z,99882.38
2023-05-20T01:47:13.826Z,99878.50
2023-05-20T01:52:17.996Z,99874.08
2023-05-20T01:57:22.669Z,99880.34
2023-05-20T02:02:26.617Z,99878.16
2023-05-20T02:07:29.840Z,99879.03
2023-05-20T02:12:33.039Z,99878.36
2023-05-20T02:17:36.273Z,99879.56
2023-05-20T02:22:39.927Z,99885.95
2023-05-20T02:27:43.082Z,99895.19
2023-05-20T02:32:46.168Z,99898.35
2023-05-20T02:37:49.270Z,99890.69
2023-05-20T02:42:52.421Z,99887.56
2023-05-20T02:47:55.756Z,99883.88
2023-05-20T02:53:01.717Z,99884.09
2023-05-20T02:58:05.163Z,99887.27
2023-05-20T03:03:10.489Z,99892.47
2023-05-20T03:08:13.738Z,99892.92
2023-05-20T03:13:16.931Z,99888.57
2023-05-20T03:18:20.200Z,99895.06
2023-05-20T03:23:23.440Z,99905.85
2023-05-20T03:28:26.842Z,99908.09
2023-05-20T03:33:30.246Z,99908.47
2023-05-20T03:38:34.053Z,99904.71
2023-05-20T03:43:37.162Z,99896.64
2023-05-20T03:48:41.703Z,99896.32
2023-05-20T03:58:29.900Z,99899.50
2023-05-20T04:03:33.464Z,99901.13
2023-05-20T04:08:39.713Z,99897.95
2023-05-20T04:13:43.404Z,99889.48
2023-05-20T04:18:48.532Z,99886.88
2023-05-20T04:23:51.972Z,99886.11
2023-05-20T04:28:59.154Z,99891.11
2023-05-20T04:34:04.613Z,99885.20
2023-05-20T04:39:08.284Z,99887.83
2023-05-20T04:44:11.813Z,99888.55
2023-05-20T04:49:15.442Z,99887.11
2023-05-20T04:54:20.476Z,99892.10
2023-05-20T04:59:23.737Z,99892.19
2023-05-20T05:04:27.492Z,99891.23
2023-05-20T05:09:31.759Z,99893.00
2023-05-20T05:14:36.062Z,99900.00
2023-05-20T05:19:39.284Z,99901.76
2023-05-20T05:24:43.207Z,99901.70
2023-05-20T05:29:46.527Z,99900.83
2023-05-20T05:34:49.818Z,99898.05
2023-05-20T05:39:53.082Z,99903.66
2023-05-20T05:44:56.337Z,99901.55
2023-05-20T05:50:03.371Z,99902.11
2023-05-20T05:55:10.677Z,99901.27
2023-05-20T06:00:14.252Z,99903.83
2023-05-20T06:05:22.823Z,99900.77
2023-05-20T06:10:29.552Z,99894.50
2023-05-20T06:15:32.815Z,99897.28
2023-05-20T06:20:36.321Z,99895.64
2023-05-20T06:25:39.703Z,99899.25
2023-05-20T06:30:43.567Z,99900.13
2023-05-20T06:35:47.798Z,99900.23
2023-05-20T06:40:51.930Z,99898.30
2023-05-20T06:45:55.347Z,99897.07
2023-05-20T06:51:11.256Z,99895.06
2023-05-20T06:56:15.345Z,99893.72
2023-05-20T07:01:18.893Z,99893.50
2023-05-20T07:06:23.341Z,99887.27
2023-05-20T07:11:26.903Z,99873.31
2023-05-20T07:16:32.614Z,99869.97
2023-05-20T07:21:36.500Z,99863.93
2023-05-20T07:26:55.996Z,99857.61
2023-05-20T07:33:29.822Z,99852.16
2023-05-20T07:38:33.364Z,99852.26
2023-05-20T07:43:39.726Z,99856.14
2023-05-20T07:48:43.868Z,99854.45
2023-05-20T07:53:47.665Z,99860.04
2023-05-20T07:58:55.909Z,99858.89
2023-05-20T08:04:01.287Z,99856.61
2023-05-20T08:09:05.336Z,99852.58
2023-05-20T08:14:10.505Z,99846.41
2023-05-20T08:19:16.755Z,99845.05
2023-05-20T08:24:23.241Z,99843.05
2023-05-20T08:29:26.903Z,99842.17
2023-05-20T08:34:30.484Z,99842.52
2023-05-20T08:39:33.688Z,99838.45
2023-05-20T08:44:37.018Z,99837.46
2023-05-20T08:49:40.209Z,99839.06
2023-05-20T08:54:49.445Z,99838.10
2023-05-20T08:59:52.515Z,99841.02
2023-05-20T09:04:55.601Z,99836.64
2023-05-20T09:10:00.333Z,99830.38
2023-05-20T09:15:08.969Z,99827.88
2023-05-20T09:20:12.542Z,99830.16
2023-05-20T09:25:23.778Z,99829.16
2023-05-20T09:30:27.719Z,99833.59
2023-05-20T09:35:31.367Z,99824.17
2023-05-20T09:40:37.977Z,99824.01
2023-05-20T09:45:41.878Z,99821.72
2023-05-20T09:50:45.420Z,99819.18
2023-05-20T09:55:49.572Z,99819.89
2023-05-20T10:00:54.176Z,99818.75
2023-05-20T10:06:05.737Z,99817.68
2023-05-20T10:11:20.828Z,99820.10
2023-05-20T10:16:46.769Z,99809.88
2023-05-20T10:22:12.286Z,99806.99
2023-05-20T10:27:18.629Z,99799.86
2023-05-20T10:32:26.109Z,99803.86
2023-05-20T10:37:33.026Z,99800.71
2023-05-20T10:42:36.204Z,99802.50
2023-05-20T10:47:58.613Z,99806.74
2023-05-20T10:53:29.320Z,99803.43
2023-05-20T10:58:39.873Z,99801.70
2023-05-20T11:03:45.427Z,99798.28
2023-05-20T11:08:48.448Z,99788.35
2023-05-20T11:13:57.630Z,99776.30
2023-05-20T11:19:01.096Z,99766.02
2023-05-20T11:24:04.763Z,99759.85
2023-05-20T11:29:08.010Z,99749.08
2023-05-20T11:34:11.430Z,99743.29
2023-05-20T11:39:15.145Z,99737.87
2023-05-20T11:44:20.825Z,99735.80
2023-05-20T11:49:24.007Z,99731.38
2023-05-20T12:33:28.956Z,99666.35
2023-05-20T12:38:32.409Z,99657.34
2023-05-20T12:43:37.480Z,99654.23
2023-05-20T12:48:42.504Z,99653.12
2023-05-20T12:53:46.056Z,99648.55
2023-05-20T12:58:49.377Z,99639.16
2023-05-20T13:03:53.876Z,99628.28
2023-05-20T13:08:57.419Z,99625.23
2023-05-20T13:14:00.807Z,99615.23
2023-05-20T13:19:04.032Z,99611.83
2023-05-20T13:24:07.308Z,99608.77
2023-05-20T13:29:10.773Z,99605.50
2023-05-20T13:34:14.301Z,99605.31
2023-05-20T13:39:17.416Z,99598.41
2023-05-20T13:44:22.823Z,99591.85
2023-05-20T13:49:26.084Z,99581.84
2023-05-20T13:54:30.589Z,99581.38
2023-05-20T13:59:33.873Z,99576.36
2023-05-20T14:04:39.952Z,99569.98
2023-05-20T14:09:43.670Z,99563.63
2023-05-20T14:14:46.828Z,99558.04
2023-05-20T14:19:50.320Z,99554.33
2023-05-20T14:24:53.414Z,99547.14
2023-05-20T14:29:56.602Z,99545.65
2023-05-20T14:35:00.281Z,99541.30
2023-05-20T14:40:05.434Z,99548.67
2023-05-20T14:45:08.922Z,99549.90
2023-05-20T14:50:12.103Z,99550.95
2023-05-20T14:55:15.323Z,99543.86
2023-05-20T15:00:18.505Z,99546.67
2023-05-20T15:05:21.858Z,99544.23
2023-05-20T15:10:24.984Z,99544.91
2023-05-20T15:15:28.125Z,99537.59
2023-05-20T15:20:31.272Z,99531.44
2023-05-20T15:25:34.634Z,99529.00
2023-05-20T15:30:38.194Z,99521.83
2023-05-20T15:35:41.900Z,99519.05
2023-05-20T15:40:45.034Z,99513.23
2023-05-20T15:45:59.305Z,99515.97
2023-05-20T15:51:03.006Z,99508.55
2023-05-20T15:56:06.591Z,99499.66
2023-05-20T16:01:09.783Z,99503.65
2023-05-20T16:06:13.249Z,99505.81
2023-05-20T16:11:16.581Z,99502.44
2023-05-20T16:16:19.905Z,99501.02
2023-05-20T16:21:25.166Z,99501.63
2023-05-20T16:26:31.145Z,99497.02
2023-05-20T16:33:28.933Z,99500.48
2023-05-20T16:38:34.507Z,99498.27
2023-05-20T16:43:37.733Z,99494.66
2023-05-20T16:48:41.488Z,99497.19
2023-05-20T16:53:44.657Z,99493.77
2023-05-20T16:58:48.286Z,99488.56
2023-05-20T17:03:52.229Z,99487.66
2023-05-20T17:08:55.468Z,99490.45
2023-05-20T17:13:58.548Z,99488.17
2023-05-20T17:19:02.198Z,99490.10
2023-05-20T17:24:05.750Z,99495.45
2023-05-20T17:33:31.822Z,99495.34
2023-05-20T17:38:35.028Z,99494.40
2023-05-20T17:43:38.087Z,99491.35
2023-05-20T17:48:41.654Z,99492.98
2023-05-20T17:53:44.851Z,99498.49
2023-05-20T17:58:48.339Z,99500.08
2023-05-20T18:03:51.698Z,99506.09
2023-05-20T18:08:59.962Z,99506.72
2023-05-20T18:14:03.582Z,99507.19
2023-05-20T18:19:06.869Z,99509.77
2023-05-20T18:24:11.577Z,99512.13
2023-05-20T18:29:14.814Z,99509.39
2023-05-20T18:34:17.928Z,99509.59
2023-05-20T18:39:24.503Z,99514.64
2023-05-20T18:44:27.646Z,99521.83
2023-05-20T18:49:30.800Z,99524.94
2023-05-20T18:54:34.046Z,99526.92
2023-05-20T18:59:37.174Z,99525.02
2023-05-20T19:04:40.383Z,99524.27
2023-05-20T19:09:43.419Z,99530.02
2023-05-20T19:14:46.834Z,99531.06
2023-05-20T19:19:50.275Z,99528.79
2023-05-20T19:24:53.393Z,99535.33
2023-05-20T19:29:56.631Z,99537.77
2023-05-20T19:34:59.782Z,99544.96
2023-05-20T19:40:03.119Z,99549.17
2023-05-20T19:45:07.351Z,99545.29
2023-05-20T19:50:10.994Z,99543.15
2023-05-20T19:55:14.777Z,99545.02
2023-05-20T20:00:18.278Z,99547.02
2023-05-20T20:05:23.772Z,99562.78
2023-05-20T20:10:27.265Z,99562.96
2023-05-20T20:15:31.865Z,99565.14
2023-05-20T20:20:39.963Z,99564.15
2023-05-20T20:25:44.099Z,99561.21
2023-05-20T20:30:47.228Z,99559.16
2023-05-20T20:35:54.566Z,99559.51
2023-05-20T20:40:59.510Z,99558.58
2023-05-20T20:46:02.707Z,99554.91
2023-05-20T20:51:05.776Z,99561.03
2023-05-20T20:56:10.004Z,99562.50
2023-05-20T21:01:17.721Z,99566.20
2023-05-20T21:06:21.353Z,99559.62
2023-05-20T21:11:28.298Z,99562.98
2023-05-20T21:16:32.092Z,99561.50
2023-05-20T21:21:36.737Z,99565.29
2023-05-20T21:26:39.940Z,99564.94
2023-05-20T21:31:43.047Z,99557.63
2023-05-20T21:36:46.121Z,99561.43
2023-05-20T21:41:49.316Z,99563.39
2023-05-20T21:46:52.684Z,99559.69
2023-05-20T21:51:55.868Z,99555.80
2023-05-20T21:56:58.926Z,99558.98
2023-05-20T22:02:02.326Z,99560.80
2023-05-20T22:07:05.808Z,99558.76
2023-05-20T22:12:11.250Z,99556.52
2023-05-20T22:17:14.808Z,99551.06
2023-05-20T22:22:17.982Z,99547.01
2023-05-20T22:27:21.562Z,99541.27
2023-05-20T22:32:24.783Z,99540.77
2023-05-20T22:37:29.004Z,99536.70
2023-05-20T22:42:32.231Z,99532.55
2023-05-20T22:47:35.324Z,99531.01
2023-05-20T22:52:38.374Z,99532.34
2023-05-20T22:57:43.708Z,99531.75
2023-05-20T23:02:50.121Z,99523.23
2023-05-20T23:07:53.797Z,99525.83
2023-05-20T23:12:57.106Z,99524.88
2023-05-20T23:18:00.490Z,99518.16
2023-05-20T23:23:10.971Z,99518.75
2023-05-20T23:28:14.759Z,99518.47
2023-05-20T23:33:22.910Z,99514.30
2023-05-20T23:38:28.452Z,99517.23
2023-05-20T23:43:31.738Z,99516.75
2023-05-20T23:48:36.132Z,99521.14
2023-05-20T23:53:41.133Z,99516.67
2023-05-20T23:58:44.332Z,99512.71
